createdAt,value
2023-04-20T00:00:01.666Z,1.33
2023-04-20T00:02:28.499Z,1.30
2023-04-20T00:04:55.293Z,1.63
2023-04-20T00:07:24.892Z,1.57
2023-04-20T00:09:51.485Z,1.60
2023-04-20T00:12:18.138Z,1.40
2023-04-20T00:14:44.976Z,1.67
2023-04-20T00:17:11.645Z,1.50
2023-04-20T00:19:38.287Z,1.40
2023-04-20T00:22:05.340Z,1.23
2023-04-20T00:24:32.018Z,1.17
2023-04-20T00:26:58.591Z,1.50
2023-04-20T00:29:25.357Z,1.65
2023-04-20T00:31:52.029Z,1.63
2023-04-20T00:34:18.900Z,1.30
2023-04-20T00:36:45.553Z,1.75
2023-04-20T00:39:12.264Z,1.52
2023-04-20T00:41:39.087Z,1.95
2023-04-20T00:44:08.064Z,1.43
2023-04-20T00:46:34.640Z,1.50
2023-04-20T00:49:01.498Z,1.27
2023-04-20T00:51:28.127Z,1.48
2023-04-20T00:53:55.173Z,1.67
2023-04-20T00:56:21.951Z,1.23
2023-04-20T00:58:48.615Z,1.15
2023-04-20T01:01:17.691Z,1.00
2023-04-20T01:03:45.235Z,1.45
2023-04-20T01:06:13.537Z,1.65
2023-04-20T01:08:48.283Z,1.57
2023-04-20T01:11:14.960Z,1.55
2023-04-20T01:13:41.549Z,1.02
2023-04-20T01:16:08.274Z,1.40
2023-04-20T01:18:44.572Z,1.10
2023-04-20T01:21:16.660Z,1.13
2023-04-20T01:23:43.855Z,1.13
2023-04-20T01:26:12.971Z,1.73
2023-04-20T01:28:39.718Z,1.45
2023-04-20T01:31:07.843Z,1.45
2023-04-20T01:33:34.787Z,1.10
2023-04-20T01:36:01.324Z,1.50
2023-04-20T01:38:28.244Z,1.45
2023-04-20T01:40:55.304Z,1.60
2023-04-20T01:43:22.591Z,1.40
2023-04-20T01:45:49.350Z,1.80
2023-04-20T01:48:16.225Z,1.48
2023-04-20T01:50:42.977Z,1.10
2023-04-20T01:53:09.763Z,1.40
2023-04-20T01:55:36.718Z,1.67
2023-04-20T01:58:04.159Z,1.60
2023-04-20T02:00:31.209Z,1.30
2023-04-20T02:02:58.089Z,1.90
2023-04-20T02:05:25.143Z,2.10
2023-04-20T02:07:51.788Z,1.50
2023-04-20T02:10:18.780Z,1.73
2023-04-20T02:12:45.583Z,2.15
2023-04-20T02:15:12.060Z,1.73
2023-04-20T02:17:38.722Z,1.55
2023-04-20T02:20:12.653Z,2.00
2023-04-20T02:22:39.292Z,2.00
2023-04-20T02:25:06.541Z,2.15
2023-04-20T02:27:33.207Z,2.08
2023-04-20T02:30:00.686Z,1.95
2023-04-20T02:32:27.803Z,2.10
2023-04-20T02:34:54.427Z,2.40
2023-04-20T02:37:21.308Z,2.47
2023-04-20T02:39:47.970Z,2.22
2023-04-20T02:42:14.500Z,2.30
2023-04-20T02:44:41.130Z,2.85
2023-04-20T02:47:07.693Z,2.57
2023-04-20T02:49:34.728Z,2.78
2023-04-20T02:52:01.357Z,2.70
2023-04-20T02:54:27.933Z,2.55
2023-04-20T02:56:57.822Z,2.72
2023-04-20T02:59:25.002Z,2.20
2023-04-20T03:01:51.913Z,3.10
2023-04-20T03:04:19.436Z,2.53
2023-04-20T03:06:46.289Z,2.92
2023-04-20T03:09:13.270Z,2.20
2023-04-20T03:11:39.805Z,2.77
2023-04-20T03:14:06.319Z,2.22
2023-04-20T03:16:32.971Z,2.13
2023-04-20T03:18:59.568Z,3.00
2023-04-20T03:21:26.592Z,2.78
2023-04-20T03:23:53.286Z,3.10
2023-04-20T03:26:20.429Z,3.05
2023-04-20T03:28:47.046Z,3.80
2023-04-20T03:31:13.512Z,3.55
2023-04-20T03:33:40.088Z,3.67
2023-04-20T03:36:07.204Z,3.13
2023-04-20T03:38:33.780Z,4.35
2023-04-20T03:41:00.427Z,3.40
2023-04-20T03:43:27.193Z,3.40
2023-04-20T03:45:54.055Z,3.15
2023-04-20T03:48:20.659Z,3.60
2023-04-20T03:50:47.264Z,3.20
2023-04-20T03:53:13.800Z,3.92
2023-04-20T03:55:40.842Z,3.95
2023-04-20T03:58:07.723Z,3.45
2023-04-20T04:00:34.663Z,3.67
2023-04-20T04:03:01.552Z,3.13
2023-04-20T04:05:28.701Z,3.53
2023-04-20T04:07:55.825Z,3.78
2023-04-20T04:10:22.551Z,3.55
2023-04-20T04:12:49.117Z,4.03
2023-04-20T04:15:15.863Z,3.92
2023-04-20T04:17:42.622Z,3.28
2023-04-20T04:20:10.455Z,4.05
2023-04-20T04:22:37.224Z,3.50
2023-04-20T04:25:04.769Z,4.10
2023-04-20T04:27:34.873Z,3.92
2023-04-20T04:30:03.512Z,3.95
2023-04-20T04:32:30.632Z,4.05
2023-04-20T04:34:58.179Z,5.15
2023-04-20T04:37:25.140Z,4.03
2023-04-20T04:39:51.636Z,4.20
2023-04-20T04:42:18.338Z,3.72
2023-04-20T04:44:45.112Z,4.00
2023-04-20T04:47:11.973Z,3.80
2023-04-20T04:49:40.788Z,4.20
2023-04-20T04:52:09.161Z,4.30
2023-04-20T04:54:35.801Z,3.83
2023-04-20T04:57:03.101Z,4.82
2023-04-20T04:59:29.645Z,4.30
2023-04-20T05:01:56.496Z,3.83
2023-04-20T05:04:23.179Z,4.00
2023-04-20T05:06:49.718Z,3.88
2023-04-20T05:09:16.695Z,4.45
2023-04-20T05:11:43.538Z,3.90
2023-04-20T05:14:10.233Z,4.07
2023-04-20T05:16:36.981Z,4.32
2023-04-20T05:19:04.135Z,4.60
2023-04-20T05:21:31.106Z,3.85
2023-04-20T05:24:00.428Z,5.05
2023-04-20T05:26:30.188Z,3.90
2023-04-20T05:28:56.716Z,4.57
2023-04-20T05:31:23.533Z,4.88
2023-04-20T05:33:50.424Z,4.38
2023-04-20T05:36:18.442Z,5.10
2023-04-20T05:38:45.370Z,4.70
2023-04-20T05:41:12.029Z,5.15
2023-04-20T05:43:38.916Z,5.60
2023-04-20T05:46:05.767Z,4.60
2023-04-20T05:48:32.371Z,4.68
2023-04-20T05:50:58.997Z,4.43
2023-04-20T05:53:26.199Z,3.95
2023-04-20T05:55:52.885Z,4.20
2023-04-20T05:58:19.568Z,3.88
2023-04-20T06:00:46.312Z,4.35
2023-04-20T06:03:13.544Z,4.30
2023-04-20T06:05:40.433Z,3.60
2023-04-20T06:08:07.045Z,4.40
2023-04-20T06:10:34.411Z,4.03
2023-04-20T06:13:01.432Z,4.07
2023-04-20T06:15:28.479Z,3.67
2023-04-20T06:17:55.295Z,4.50
2023-04-20T06:20:22.405Z,3.35
2023-04-20T06:22:49.385Z,4.60
2023-04-20T06:25:16.124Z,3.33
2023-04-20T06:27:43.341Z,4.40
2023-04-20T06:30:13.503Z,3.22
2023-04-20T06:32:41.882Z,3.47
2023-04-20T06:35:09.205Z,4.13
2023-04-20T06:37:38.943Z,3.78
2023-04-20T06:40:09.718Z,2.90
2023-04-20T06:42:37.435Z,3.70
2023-04-20T06:45:07.964Z,3.65
2023-04-20T06:47:35.387Z,3.60
2023-04-20T06:50:11.693Z,3.28
2023-04-20T06:52:40.969Z,4.20
2023-04-20T06:55:08.284Z,3.17
2023-04-20T06:57:39.566Z,3.60
2023-04-20T07:00:12.754Z,3.58
2023-04-20T07:02:54.919Z,3.75
2023-04-20T07:05:22.182Z,4.17
2023-04-20T07:07:54.713Z,3.15
2023-04-20T07:11:04.516Z,3.55
2023-04-20T07:13:35.653Z,3.50
2023-04-20T07:16:14.573Z,3.65
2023-04-20T07:18:50.414Z,3.30
2023-04-20T07:21:22.240Z,3.20
2023-04-20T07:24:00.952Z,3.28
2023-04-20T07:26:27.984Z,3.13
2023-04-20T07:28:54.704Z,2.97
2023-04-20T07:31:21.438Z,3.10
2023-04-20T07:33:50.441Z,3.13
2023-04-20T07:36:17.012Z,2.80
2023-04-20T07:38:43.691Z,3.13
2023-04-20T07:41:11.048Z,2.50
2023-04-20T07:43:39.239Z,1.63
2023-04-20T07:46:06.044Z,2.60
2023-04-20T07:49:00.072Z,3.08
2023-04-20T07:51:32.542Z,2.15
2023-04-20T07:53:59.284Z,2.60
2023-04-20T07:56:29.906Z,3.13
2023-04-20T07:58:57.487Z,2.83
2023-04-20T08:01:27.681Z,3.08
2023-04-20T08:04:00.666Z,2.83
2023-04-20T08:06:27.708Z,3.75
2023-04-20T08:08:59.169Z,2.77
2023-04-20T08:11:37.349Z,3.10
2023-04-20T08:14:10.391Z,2.78
2023-04-20T08:17:07.234Z,2.90
2023-04-20T08:19:34.362Z,2.90
2023-04-20T08:22:02.187Z,3.57
2023-04-20T08:24:29.314Z,3.63
2023-04-20T08:27:09.979Z,3.17
2023-04-20T08:29:36.833Z,2.65
2023-04-20T08:32:09.193Z,2.92
2023-04-20T08:34:36.400Z,2.77
2023-04-20T08:37:03.655Z,2.63
2023-04-20T08:39:35.277Z,3.20
2023-04-20T08:42:06.933Z,3.17
2023-04-20T08:44:35.729Z,2.33
2023-04-20T08:47:12.117Z,2.73
2023-04-20T08:49:42.078Z,2.75
2023-04-20T08:52:11.421Z,3.00
2023-04-20T08:54:55.233Z,2.70
2023-04-20T08:57:23.159Z,2.50
2023-04-20T08:59:52.115Z,1.97
2023-04-20T09:02:21.445Z,1.90
2023-04-20T09:05:01.286Z,1.75
2023-04-20T09:07:34.767Z,2.20
2023-04-20T09:10:01.390Z,1.77
2023-04-20T09:12:50.229Z,1.80
2023-04-20T09:15:31.273Z,1.73
2023-04-20T09:17:58.306Z,1.67
2023-04-20T09:20:53.625Z,1.38
2023-04-20T09:23:31.216Z,1.45
2023-04-20T09:26:00.544Z,2.17
2023-04-20T09:28:38.555Z,1.67
2023-04-20T09:31:21.568Z,1.33
2023-04-20T09:34:01.679Z,1.92
2023-04-20T09:37:02.006Z,1.40
2023-04-20T09:39:45.251Z,1.40
2023-04-20T09:42:19.591Z,1.70
2023-04-20T09:44:46.276Z,1.30
2023-04-20T09:47:17.229Z,1.67
2023-04-20T09:49:49.816Z,1.60
2023-04-20T09:52:21.254Z,1.57
2023-04-20T09:54:48.494Z,1.30
2023-04-20T09:57:19.276Z,2.63
2023-04-20T09:59:47.336Z,1.30
2023-04-20T10:02:14.933Z,1.20
2023-04-20T10:05:07.360Z,1.20
2023-04-20T10:07:35.263Z,1.13
2023-04-20T10:10:16.377Z,1.08
2023-04-20T10:12:56.811Z,0.80
2023-04-20T10:15:29.604Z,1.48
2023-04-20T10:18:01.689Z,1.10
2023-04-20T10:20:29.594Z,1.00
2023-04-20T10:23:10.533Z,0.93
2023-04-20T10:25:49.400Z,0.90
2023-04-20T10:28:16.984Z,0.90
2023-04-20T10:31:00.735Z,0.80
2023-04-20T10:33:30.598Z,1.33
2023-04-20T10:35:59.279Z,1.30
2023-04-20T10:39:05.088Z,1.40
2023-04-20T10:41:29.125Z,1.27
2023-04-20T10:44:35.316Z,0.87
2023-04-20T10:47:23.495Z,1.33
2023-04-20T10:49:53.263Z,1.20
2023-04-20T10:52:33.157Z,1.00
2023-04-20T10:55:00.139Z,1.38
2023-04-20T10:57:26.886Z,1.20
2023-04-20T10:59:53.513Z,1.25
2023-04-20T11:02:22.938Z,1.30
2023-04-20T11:07:51.886Z,1.50
2023-04-20T11:10:20.994Z,1.10
2023-04-20T11:12:51.772Z,1.17
2023-04-20T11:15:40.346Z,1.10
2023-04-20T11:18:25.327Z,1.10
2023-04-20T11:21:21.150Z,1.70
2023-04-20T11:23:50.814Z,1.10
2023-04-20T11:26:22.879Z,1.30
2023-04-20T11:28:59.249Z,1.67
2023-04-20T11:34:18.295Z,1.75
2023-04-20T11:36:56.269Z,1.80
2023-04-20T11:39:30.770Z,1.90
2023-04-20T11:41:58.844Z,1.55
2023-04-20T11:44:29.992Z,1.80
2023-04-20T11:47:11.770Z,1.60
2023-04-20T11:50:08.246Z,1.80
2023-04-20T11:52:35.670Z,1.70
2023-04-20T11:55:11.104Z,1.60
2023-04-20T11:57:50.726Z,1.60
2023-04-20T12:00:18.361Z,1.67
2023-04-20T12:02:53.829Z,1.60
2023-04-20T12:05:57.958Z,2.00
2023-04-20T12:09:16.869Z,2.90
2023-04-20T12:11:56.874Z,1.92
2023-04-20T12:14:36.096Z,1.77
2023-04-20T12:17:18.535Z,1.97
2023-04-20T12:20:49.195Z,1.38
2023-04-20T12:23:27.306Z,1.80
2023-04-20T12:35:07.226Z,1.23
2023-04-20T12:37:40.712Z,1.52
2023-04-20T12:40:10.711Z,1.55
2023-04-20T12:42:44.925Z,1.73
2023-04-20T12:45:32.923Z,1.30
2023-04-20T12:48:25.373Z,1.53
2023-04-20T12:50:57.435Z,1.40
2023-04-20T12:53:31.016Z,1.17
2023-04-20T12:56:01.286Z,1.10
2023-04-20T12:58:33.287Z,1.20
2023-04-20T13:01:03.213Z,1.70
2023-04-20T13:03:38.175Z,1.02
2023-04-20T13:06:07.844Z,1.27
2023-04-20T13:08:44.902Z,1.85
2023-04-20T13:14:26.989Z,1.07
2023-04-20T13:24:27.918Z,0.90
2023-04-20T13:27:08.817Z,0.70
2023-04-20T13:29:37.913Z,0.90
2023-04-20T13:32:34.829Z,0.60
2023-04-20T13:35:28.511Z,0.60
2023-04-20T13:38:14.531Z,0.70
2023-04-20T13:40:44.044Z,0.90
2023-04-20T13:43:29.576Z,0.80
2023-04-20T13:46:06.670Z,1.85
2023-04-20T13:52:10.389Z,0.63
2023-04-20T13:54:50.572Z,0.90
2023-04-20T13:57:17.256Z,1.13
2023-04-20T14:00:03.276Z,0.90
2023-04-20T14:06:12.865Z,1.40
2023-04-20T14:09:10.329Z,0.77
2023-04-20T14:18:12.961Z,0.85
2023-04-20T14:38:44.342Z,0.68
2023-04-20T14:53:42.138Z,1.50
2023-04-20T14:59:37.158Z,0.75
2023-04-20T15:02:20.358Z,0.95
2023-04-20T15:04:59.298Z,0.63
2023-04-20T15:23:22.637Z,0.60
2023-04-20T15:33:45.460Z,1.05
2023-04-20T15:39:51.411Z,1.30
2023-04-20T15:42:21.351Z,1.20
2023-04-20T15:46:01.001Z,1.63
2023-04-20T15:49:19.282Z,1.60
2023-04-20T15:52:04.832Z,1.67
2023-04-20T15:54:54.632Z,1.63
2023-04-20T15:57:34.978Z,2.28
2023-04-20T16:03:49.868Z,1.50
2023-04-20T16:06:35.143Z,1.67
2023-04-20T16:09:10.339Z,1.73
2023-04-20T16:11:37.148Z,1.90
2023-04-20T16:14:03.830Z,2.38
2023-04-20T16:17:07.013Z,3.03
2023-04-20T16:19:39.267Z,2.50
2023-04-20T16:22:08.111Z,2.53
2023-04-20T16:24:40.132Z,1.95
2023-04-20T16:27:07.312Z,2.90
2023-04-20T16:29:37.465Z,3.00
2023-04-20T16:32:21.838Z,2.60
2023-04-20T16:35:00.892Z,2.03
2023-04-20T16:44:26.679Z,2.08
2023-04-20T16:46:53.537Z,2.60
2023-04-20T16:49:25.286Z,2.23
2023-04-20T16:52:00.506Z,2.00
2023-04-20T16:54:55.847Z,2.60
2023-04-20T16:57:25.709Z,2.15
2023-04-20T16:59:55.190Z,2.50
2023-04-20T17:02:26.108Z,2.27
2023-04-20T17:05:12.101Z,2.58
2023-04-20T17:07:42.404Z,2.50
2023-04-20T17:10:15.121Z,3.47
2023-04-20T17:13:22.069Z,2.88
2023-04-20T17:15:48.904Z,3.10
2023-04-20T17:18:18.736Z,2.75
2023-04-20T17:20:48.202Z,2.40
2023-04-20T17:23:22.532Z,2.72
2023-04-20T17:25:55.156Z,2.30
2023-04-20T17:28:23.400Z,2.20
2023-04-20T17:30:52.362Z,2.10
2023-04-20T17:33:18.929Z,2.47
2023-04-20T17:35:46.792Z,1.90
2023-04-20T17:38:13.600Z,1.33
2023-04-20T17:40:40.658Z,1.40
2023-04-20T17:43:07.646Z,1.90
2023-04-20T17:45:34.573Z,2.10
2023-04-20T17:48:01.350Z,1.80
2023-04-20T17:50:38.605Z,1.90
2023-04-20T17:53:11.351Z,1.83
2023-04-20T18:02:17.356Z,1.65
2023-04-20T18:05:13.937Z,1.20
2023-04-20T18:07:53.748Z,1.33
2023-04-20T18:10:20.708Z,1.52
2023-04-20T18:13:03.213Z,1.70
2023-04-20T18:15:31.380Z,1.52
2023-04-20T18:18:00.296Z,2.10
2023-04-20T18:20:27.198Z,1.53
2023-04-20T18:22:58.729Z,2.13
2023-04-20T18:25:26.336Z,2.30
2023-04-20T18:28:10.817Z,2.47
2023-04-20T18:30:42.265Z,1.77
2023-04-20T18:33:09.231Z,2.00
2023-04-20T18:35:46.048Z,2.25
2023-04-20T18:38:12.709Z,1.52
2023-04-20T18:40:48.302Z,1.65
2023-04-20T18:43:23.644Z,1.40
2023-04-20T18:45:50.624Z,1.50
2023-04-20T18:48:17.853Z,1.60
2023-04-20T18:50:48.072Z,2.10
2023-04-20T18:54:26.309Z,1.70
2023-04-20T18:57:24.214Z,1.88
2023-04-20T18:59:52.160Z,1.73
2023-04-20T19:02:21.477Z,1.67
2023-04-20T19:04:51.135Z,1.50
2023-04-20T19:10:43.482Z,1.33
2023-04-20T19:13:22.792Z,1.77
2023-04-20T19:15:55.172Z,1.58
2023-04-20T19:18:48.400Z,2.10
2023-04-20T19:21:15.658Z,1.45
2023-04-20T19:23:45.367Z,2.45
2023-04-20T19:26:34.281Z,2.20
2023-04-20T19:29:28.434Z,2.60
2023-04-20T19:32:34.967Z,2.47
2023-04-20T19:57:46.546Z,2.50
2023-04-20T20:00:38.209Z,2.10
2023-04-20T20:03:33.470Z,3.13
2023-04-20T20:06:34.355Z,2.88
2023-04-20T20:10:19.197Z,3.95
2023-04-20T20:16:25.523Z,2.83
2023-04-20T20:19:00.118Z,3.42
2023-04-20T20:21:28.081Z,2.90
2023-04-20T20:24:13.147Z,2.38
2023-04-20T20:27:41.864Z,2.38
2023-04-20T20:29:41.778Z,3.03
2023-04-20T20:32:36.559Z,2.97
2023-04-20T20:35:34.962Z,3.15
2023-04-20T20:38:11.047Z,3.38
2023-04-20T20:40:50.584Z,3.15
2023-04-20T20:43:27.499Z,3.23
2023-04-20T20:45:56.962Z,3.33
2023-04-20T20:48:26.274Z,2.80
2023-04-20T20:51:09.916Z,2.97
2023-04-20T20:54:03.441Z,3.60
2023-04-20T20:56:41.470Z,2.90
2023-04-20T20:59:12.633Z,3.88
2023-04-20T21:01:48.162Z,3.38
2023-04-20T21:04:52.755Z,3.45
2023-04-20T21:07:19.510Z,4.30
2023-04-20T21:09:46.458Z,3.77
2023-04-20T21:12:16.382Z,3.70
2023-04-20T21:14:45.993Z,4.50
2023-04-20T21:17:25.092Z,3.72
2023-04-20T21:19:54.274Z,4.35
2023-04-20T21:22:23.688Z,3.77
2023-04-20T21:24:50.645Z,4.07
2023-04-20T21:27:20.208Z,4.47
2023-04-20T21:29:56.458Z,3.92
2023-04-20T21:32:24.129Z,4.35
2023-04-20T21:34:54.241Z,4.70
2023-04-20T21:37:21.017Z,5.80
2023-04-20T21:39:49.354Z,4.95
2023-04-20T21:42:16.491Z,4.40
2023-04-20T21:44:43.161Z,3.45
2023-04-20T21:47:09.789Z,4.57
2023-04-20T21:49:39.905Z,4.13
2023-04-20T21:52:06.710Z,5.22
2023-04-20T21:54:34.841Z,4.40
2023-04-20T21:57:02.087Z,5.28
2023-04-20T21:59:34.377Z,4.53
2023-04-20T22:02:03.787Z,4.78
2023-04-20T22:04:32.282Z,4.88
2023-04-20T22:07:00.762Z,4.90
2023-04-20T22:09:27.362Z,4.80
2023-04-20T22:11:54.051Z,5.40
2023-04-20T22:14:20.887Z,5.15
2023-04-20T22:16:48.036Z,5.80
2023-04-20T22:19:14.843Z,6.22
2023-04-20T22:21:43.109Z,5.55
2023-04-20T22:24:09.654Z,5.07
2023-04-20T22:26:36.174Z,5.25
2023-04-20T22:29:02.774Z,5.90
2023-04-20T22:31:29.843Z,5.05
2023-04-20T22:33:56.551Z,4.88
2023-04-20T22:36:23.212Z,3.80
2023-04-20T22:38:49.830Z,4.47
2023-04-20T22:41:17.677Z,5.63
2023-04-20T22:43:45.475Z,5.28
2023-04-20T22:46:12.984Z,5.38
2023-04-20T22:48:41.215Z,5.60
2023-04-20T22:51:08.081Z,5.80
2023-04-20T22:53:34.763Z,5.00
2023-04-20T22:56:06.265Z,5.60
2023-04-20T22:58:33.470Z,4.43
2023-04-20T23:01:00.630Z,5.20
2023-04-20T23:03:27.793Z,5.60
2023-04-20T23:05:57.651Z,6.57
2023-04-20T23:08:25.548Z,5.22
2023-04-20T23:10:56.044Z,6.20
2023-04-20T23:13:26.297Z,5.80
2023-04-20T23:15:53.224Z,5.70
2023-04-20T23:18:19.960Z,5.07
2023-04-20T23:20:46.505Z,6.22
2023-04-20T23:23:13.286Z,5.80
2023-04-20T23:25:39.834Z,6.37
2023-04-20T23:28:06.445Z,6.00
2023-04-20T23:30:33.261Z,5.43
2023-04-20T23:33:00.287Z,6.38
2023-04-20T23:35:26.871Z,6.28
2023-04-20T23:37:55.413Z,5.50
2023-04-20T23:40:22.007Z,6.38
2023-04-20T23:42:48.785Z,5.85
2023-04-20T23:45:15.288Z,6.47
2023-04-20T23:47:41.891Z,5.55
2023-04-20T23:50:09.252Z,6.17
2023-04-20T23:52:36.351Z,7.00
2023-04-20T23:55:04.257Z,5.70
2023-04-20T23:57:30.890Z,6.63
2023-04-20T23:59:57.392Z,5.57
